Country
Station

 

Weather  for  Istanbul/Ataturk  -  Turkey    Turkey

  
23 °C (73 °F)
    
 
 

Current METAR for Istanbul/Ataturk is :

LTBA 211520Z 19009KT 9999 FEW040 23/16 Q1012 NOSIG

 

This is a report for Istanbul/Ataturk - Turkey.
 
The report was made 29 minutes ago, at 15:20 UTC .
The wind was blowing at a speed of 4.6 meters per second (10.4 miles per hour) from south (190°).
 
The temperature was 23 °C (73 °F), with a dew-point at 16 °C (61 °F).
The temperature felt like 24 °C (76 °F).
 
The atmospheric pressure was 1012 hPa (29.88 inHg).
The relative humidity was 64.7%.
 
There were a few clouds at a height of 1219 meters (4000 feet).
 
The overall visibility was greater than 10 kilometers (6.2 miles).
 

 
 
 
 

Country :   A   B   C   D   E   F   G   H   I   J   K   L   M   N   O   P   Q   R   S   T   U   V   W   Y   Z

 

Site Info  |  Disclaimer  |  Credits  |  Privacy
Contact us  |  Add to favorites
© 2013-2019 METARs - All rights reserved